Time;durP1;ratioP1;P1;durP2;ratioP2;P2;SDS_P1;SDS_P2;PMS_P1;PMS_P2;Temp;Humidity;BMP_temperature;BMP_pressure;BME280_temperature;BME280_humidity;BME280_pressure;Samples;Min_cycle;Max_cycle;Signal;HPM_P1;HPM_P2
2022/07/28 00:00:41;;;;;;;2.50;1.63;;;;;;;;;;4977301;28;20241;-75
2022/07/28 00:03:09;;;;;;;4.33;1.80;;;;;;;;;;4977155;28;20678;-75
2022/07/28 00:05:38;;;;;;;4.23;1.73;;;;;;;;;;4978039;28;20206;-75
2022/07/28 00:08:06;;;;;;;4.03;1.80;;;;;;;;;;4976739;28;20754;-75
2022/07/28 00:10:34;;;;;;;2.53;1.50;;;;;;;;;;4977068;28;20209;-75
2022/07/28 00:13:03;;;;;;;5.17;1.70;;;;;;;;;;4976937;28;20209;-75
2022/07/28 00:15:34;;;;;;;3.57;1.63;;;;;;;;;;4975834;28;20707;-75
2022/07/28 00:18:04;;;;;;;2.83;1.70;;;;;;;;;;4977012;28;20226;-75
2022/07/28 00:20:32;;;;;;;2.73;1.80;;;;;;;;;;4977194;28;20202;-75
2022/07/28 00:23:01;;;;;;;2.80;1.90;;;;;;;;;;4976295;28;20276;-75
2022/07/28 00:25:29;;;;;;;4.03;1.93;;;;;;;;;;4976537;28;20532;-75
2022/07/28 00:27:57;;;;;;;3.73;2.00;;;;;;;;;;4976646;28;20773;-75
2022/07/28 00:30:26;;;;;;;2.83;1.70;;;;;;;;;;4975764;28;20282;-75
2022/07/28 00:32:55;;;;;;;3.97;1.97;;;;;;;;;;4976554;28;20577;-75
2022/07/28 00:35:25;;;;;;;4.40;1.93;;;;;;;;;;4976280;28;20213;-75
2022/07/28 00:37:58;;;;;;;4.30;1.90;;;;;;;;;;4976233;28;20232;-75
2022/07/28 00:43:10;;;;;;;5.00;1.70;;;;;;;;;;4975294;28;20233;-75
2022/07/28 00:45:39;;;;;;;3.83;1.87;;;;;;;;;;4976040;28;20709;-75
2022/07/28 00:48:07;;;;;;;5.07;2.27;;;;;;;;;;4976855;28;20284;-75
2022/07/28 00:50:39;;;;;;;3.93;2.03;;;;;;;;;;4976265;28;20216;-75
2022/07/28 00:53:07;;;;;;;4.47;1.93;;;;;;;;;;4976102;28;20194;-75
2022/07/28 00:55:36;;;;;;;3.20;1.87;;;;;;;;;;4976141;28;20671;-75
2022/07/28 00:58:26;;;;;;;5.40;2.00;;;;;;;;;;4971248;28;20283;-75
2022/07/28 01:00:55;;;;;;;6.63;2.10;;;;;;;;;;4956810;29;20209;-75
2022/07/28 01:03:23;;;;;;;6.50;2.80;;;;;;;;;;4956968;29;20234;-75
2022/07/28 01:05:57;;;;;;;4.63;2.60;;;;;;;;;;4956330;29;20217;-75
2022/07/28 01:08:28;;;;;;;4.20;2.50;;;;;;;;;;4970575;28;20252;-75
2022/07/28 01:11:02;;;;;;;2.83;2.30;;;;;;;;;;4976065;28;20244;-75
2022/07/28 01:13:33;;;;;;;3.67;2.20;;;;;;;;;;4975850;28;20209;-75
2022/07/28 01:16:03;;;;;;;3.67;2.23;;;;;;;;;;4975204;28;20213;-75
2022/07/28 01:18:34;;;;;;;4.73;2.43;;;;;;;;;;4975334;28;20232;-75
2022/07/28 01:21:05;;;;;;;3.00;2.40;;;;;;;;;;4975436;28;20671;-75
2022/07/28 01:24:01;;;;;;;4.57;2.50;;;;;;;;;;4975188;28;20221;-75
2022/07/28 01:26:36;;;;;;;4.00;2.23;;;;;;;;;;4930407;28;20213;-75
2022/07/28 01:29:14;;;;;;;2.70;2.23;;;;;;;;;;4969136;28;20204;-75
2022/07/28 01:31:45;;;;;;;5.47;2.30;;;;;;;;;;4975224;28;20208;-75
2022/07/28 01:34:15;;;;;;;5.00;2.63;;;;;;;;;;4975486;28;20194;-75
2022/07/28 01:36:46;;;;;;;3.67;2.30;;;;;;;;;;4975306;28;20229;-75
2022/07/28 01:39:15;;;;;;;3.70;2.37;;;;;;;;;;4975534;28;20216;-75
2022/07/28 01:41:44;;;;;;;2.67;2.10;;;;;;;;;;4987096;28;20947;-75
2022/07/28 01:44:15;;;;;;;3.57;2.10;;;;;;;;;;4994770;28;20666;-75
2022/07/28 01:46:46;;;;;;;3.80;2.57;;;;;;;;;;4987598;28;20258;-74
2022/07/28 01:49:15;;;;;;;4.13;2.30;;;;;;;;;;4975485;28;20643;-75
2022/07/28 01:51:45;;;;;;;3.83;2.50;;;;;;;;;;4974854;28;20630;-75
2022/07/28 01:54:14;;;;;;;4.30;2.67;;;;;;;;;;4974772;28;20216;-75
2022/07/28 01:56:44;;;;;;;2.50;2.30;;;;;;;;;;4974375;28;20234;-75
2022/07/28 01:59:14;;;;;;;5.30;2.83;;;;;;;;;;4975081;28;20214;-75
2022/07/28 02:01:44;;;;;;;5.13;2.30;;;;;;;;;;4975415;28;20606;-75
2022/07/28 02:04:15;;;;;;;3.57;2.23;;;;;;;;;;4974613;28;20622;-75
2022/07/28 02:06:46;;;;;;;3.63;2.30;;;;;;;;;;4956215;28;20238;-75
2022/07/28 02:09:16;;;;;;;5.57;2.30;;;;;;;;;;4968635;28;20209;-75
2022/07/28 02:11:46;;;;;;;2.57;2.27;;;;;;;;;;4975301;28;20211;-75
2022/07/28 02:14:16;;;;;;;3.10;2.30;;;;;;;;;;4974518;28;20205;-75
2022/07/28 02:16:47;;;;;;;6.20;2.47;;;;;;;;;;4974709;28;20707;-75
2022/07/28 02:19:18;;;;;;;2.90;2.37;;;;;;;;;;4973962;28;20211;-75
2022/07/28 02:21:47;;;;;;;6.93;2.53;;;;;;;;;;4974185;28;20213;-75
2022/07/28 02:24:17;;;;;;;3.60;2.30;;;;;;;;;;4974765;28;20225;-75
2022/07/28 02:26:49;;;;;;;3.40;2.10;;;;;;;;;;4974284;28;20309;-75
2022/07/28 02:29:19;;;;;;;3.27;2.20;;;;;;;;;;4974783;28;20217;-75
2022/07/28 02:32:11;;;;;;;2.27;1.97;;;;;;;;;;4973579;28;20263;-75
2022/07/28 02:34:58;;;;;;;4.00;2.30;;;;;;;;;;4955472;29;20274;-75
2022/07/28 02:37:27;;;;;;;4.37;2.20;;;;;;;;;;4955235;28;20234;-75
2022/07/28 02:39:57;;;;;;;3.43;2.20;;;;;;;;;;4955393;29;20264;-75
2022/07/28 02:42:31;;;;;;;3.23;2.30;;;;;;;;;;4957966;28;20304;-75
2022/07/28 02:45:05;;;;;;;5.73;2.63;;;;;;;;;;4973961;28;20220;-75
2022/07/28 02:47:37;;;;;;;3.20;2.30;;;;;;;;;;4989742;28;20223;-74
2022/07/28 02:50:08;;;;;;;3.83;2.57;;;;;;;;;;4989459;28;20268;-75
2022/07/28 02:52:37;;;;;;;3.73;2.47;;;;;;;;;;4955359;29;20678;-75
2022/07/28 02:55:07;;;;;;;3.73;2.37;;;;;;;;;;4955275;29;20631;-75
2022/07/28 02:57:36;;;;;;;4.23;2.30;;;;;;;;;;4966455;28;20234;-75
2022/07/28 03:00:04;;;;;;;3.13;2.30;;;;;;;;;;4974313;28;20205;-74
2022/07/28 03:02:35;;;;;;;3.77;2.63;;;;;;;;;;4974570;28;20206;-75
2022/07/28 03:05:04;;;;;;;5.20;2.90;;;;;;;;;;4973890;28;20211;-74
2022/07/28 03:07:40;;;;;;;4.00;2.20;;;;;;;;;;4973972;28;20232;-75
2022/07/28 03:10:19;;;;;;;4.67;2.37;;;;;;;;;;4974004;28;20232;-75
2022/07/28 03:13:02;;;;;;;4.73;2.17;;;;;;;;;;4974099;28;20213;-74
2022/07/28 03:15:31;;;;;;;3.50;2.10;;;;;;;;;;4974583;28;20214;-75
2022/07/28 03:17:59;;;;;;;5.70;2.30;;;;;;;;;;4974156;28;20317;-75
2022/07/28 03:20:28;;;;;;;4.53;2.40;;;;;;;;;;4973133;28;20212;-75
2022/07/28 03:22:58;;;;;;;3.47;1.97;;;;;;;;;;4973988;28;20225;-74
2022/07/28 03:25:28;;;;;;;2.80;2.10;;;;;;;;;;4974171;28;20671;-75
2022/07/28 03:27:58;;;;;;;3.23;2.30;;;;;;;;;;4973970;28;20226;-75
2022/07/28 03:30:28;;;;;;;4.57;2.53;;;;;;;;;;4974058;28;20594;-75
2022/07/28 03:32:57;;;;;;;3.87;2.33;;;;;;;;;;4973752;28;20300;-75
2022/07/28 03:35:26;;;;;;;3.50;2.47;;;;;;;;;;4973340;28;20640;-75
2022/07/28 03:37:56;;;;;;;2.70;2.40;;;;;;;;;;4973945;28;20700;-75
2022/07/28 03:40:28;;;;;;;2.97;2.60;;;;;;;;;;4973693;28;20202;-75
2022/07/28 03:42:57;;;;;;;2.70;2.50;;;;;;;;;;4976955;28;20221;-75
2022/07/28 03:45:25;;;;;;;2.60;2.40;;;;;;;;;;4977630;28;20211;-75
2022/07/28 03:47:55;;;;;;;5.03;2.60;;;;;;;;;;4977392;28;20277;-75
2022/07/28 03:50:23;;;;;;;3.40;2.37;;;;;;;;;;4976867;28;20210;-75
2022/07/28 03:52:52;;;;;;;3.73;2.63;;;;;;;;;;4977460;28;20213;-75
2022/07/28 03:55:21;;;;;;;5.73;2.60;;;;;;;;;;4976314;28;20214;-75
2022/07/28 03:57:50;;;;;;;4.47;2.80;;;;;;;;;;4960735;28;20653;-75
2022/07/28 04:00:20;;;;;;;7.00;2.90;;;;;;;;;;4975705;28;20205;-75
2022/07/28 04:02:48;;;;;;;4.77;2.30;;;;;;;;;;4976345;28;20205;-75
2022/07/28 04:05:18;;;;;;;4.67;2.40;;;;;;;;;;4976727;28;20244;-74
2022/07/28 04:07:47;;;;;;;4.73;2.60;;;;;;;;;;4983164;28;20616;-75
2022/07/28 04:10:16;;;;;;;5.23;2.60;;;;;;;;;;4976493;28;20213;-75
2022/07/28 04:12:45;;;;;;;5.17;2.73;;;;;;;;;;4976934;28;20265;-75
2022/07/28 04:15:16;;;;;;;7.83;2.97;;;;;;;;;;4976519;28;20229;-75
2022/07/28 04:17:44;;;;;;;5.07;2.50;;;;;;;;;;4975636;28;20222;-75
2022/07/28 04:20:16;;;;;;;4.97;2.30;;;;;;;;;;4971409;28;20210;-75
2022/07/28 04:22:45;;;;;;;5.00;2.80;;;;;;;;;;4974293;28;20217;-75
2022/07/28 04:25:14;;;;;;;4.20;2.53;;;;;;;;;;4976269;28;20224;-75
2022/07/28 04:27:43;;;;;;;3.60;2.53;;;;;;;;;;4976328;28;20268;-75
2022/07/28 04:30:13;;;;;;;6.40;2.70;;;;;;;;;;4976568;28;20300;-75
2022/07/28 04:32:43;;;;;;;3.47;2.40;;;;;;;;;;4976322;28;20248;-75
2022/07/28 04:35:12;;;;;;;3.07;2.40;;;;;;;;;;4976126;28;20213;-75
2022/07/28 04:37:45;;;;;;;5.13;2.77;;;;;;;;;;4976154;28;20231;-75
2022/07/28 04:40:14;;;;;;;6.80;2.73;;;;;;;;;;4974625;28;20266;-75
2022/07/28 04:42:43;;;;;;;4.57;2.97;;;;;;;;;;4976232;28;20210;-75
2022/07/28 04:45:11;;;;;;;5.93;2.90;;;;;;;;;;4975803;28;20270;-75
2022/07/28 04:47:40;;;;;;;7.27;2.93;;;;;;;;;;4976105;28;20219;-75
2022/07/28 04:50:13;;;;;;;4.33;3.10;;;;;;;;;;4975517;28;20209;-75
2022/07/28 04:52:42;;;;;;;4.10;2.93;;;;;;;;;;4975308;28;20626;-75
2022/07/28 04:55:11;;;;;;;5.77;3.30;;;;;;;;;;4975067;28;20687;-75
2022/07/28 04:57:39;;;;;;;4.40;3.27;;;;;;;;;;4974501;28;20239;-75
2022/07/28 05:00:12;;;;;;;6.30;3.50;;;;;;;;;;4972663;28;20208;-75
2022/07/28 05:02:41;;;;;;;6.70;2.90;;;;;;;;;;4971070;28;20206;-75
2022/07/28 05:05:11;;;;;;;5.33;3.30;;;;;;;;;;4976059;28;20202;-75
2022/07/28 05:07:40;;;;;;;7.37;3.20;;;;;;;;;;4974863;28;20317;-75
2022/07/28 05:10:12;;;;;;;5.77;3.13;;;;;;;;;;4974858;28;20668;-75
2022/07/28 05:12:41;;;;;;;8.50;3.53;;;;;;;;;;4956856;29;20210;-75
2022/07/28 05:15:19;;;;;;;7.23;3.30;;;;;;;;;;4963047;28;20276;-74
2022/07/28 05:17:47;;;;;;;5.80;3.50;;;;;;;;;;4975554;28;20316;-75
2022/07/28 05:20:17;;;;;;;6.07;3.40;;;;;;;;;;4975003;28;21237;-75
2022/07/28 05:22:46;;;;;;;7.77;3.93;;;;;;;;;;4975402;28;20217;-76
2022/07/28 05:25:16;;;;;;;7.07;3.57;;;;;;;;;;4973607;28;20202;-75
2022/07/28 05:27:44;;;;;;;6.37;3.63;;;;;;;;;;4972263;28;20246;-75
2022/07/28 05:30:13;;;;;;;4.90;3.50;;;;;;;;;;4970095;28;20214;-74
2022/07/28 05:32:43;;;;;;;5.73;3.20;;;;;;;;;;4975305;28;20216;-75
2022/07/28 05:35:13;;;;;;;3.90;3.50;;;;;;;;;;4974777;28;20233;-75
2022/07/28 05:37:43;;;;;;;5.97;3.40;;;;;;;;;;4955450;28;20340;-75
2022/07/28 05:40:13;;;;;;;6.87;3.53;;;;;;;;;;4972087;28;20261;-75
2022/07/28 05:42:42;;;;;;;7.80;3.80;;;;;;;;;;4973524;28;20210;-75
2022/07/28 05:45:12;;;;;;;8.00;3.67;;;;;;;;;;4974971;28;20206;-75
2022/07/28 05:47:45;;;;;;;6.73;4.30;;;;;;;;;;4973957;28;20234;-75
2022/07/28 05:50:14;;;;;;;8.23;4.10;;;;;;;;;;4969911;28;20229;-75
2022/07/28 05:52:44;;;;;;;8.03;4.23;;;;;;;;;;4970391;28;20217;-74
2022/07/28 05:55:12;;;;;;;7.70;3.93;;;;;;;;;;4974762;28;20214;-75
2022/07/28 05:57:41;;;;;;;6.53;3.70;;;;;;;;;;4974824;28;20315;-75
2022/07/28 06:00:11;;;;;;;5.87;3.87;;;;;;;;;;4973962;28;20252;-75
2022/07/28 06:02:39;;;;;;;6.30;4.20;;;;;;;;;;4974067;28;20659;-75
2022/07/28 06:05:08;;;;;;;8.50;4.53;;;;;;;;;;4974672;28;20556;-75
2022/07/28 06:07:37;;;;;;;9.50;5.13;;;;;;;;;;4975183;28;20229;-74
2022/07/28 06:10:13;;;;;;;7.17;4.30;;;;;;;;;;4975186;28;20280;-75
2022/07/28 06:12:42;;;;;;;7.47;4.30;;;;;;;;;;4975131;28;20190;-75
2022/07/28 06:15:13;;;;;;;8.30;4.50;;;;;;;;;;4972427;28;20222;-75
2022/07/28 06:17:41;;;;;;;6.70;3.83;;;;;;;;;;4974684;28;20237;-75
2022/07/28 06:20:10;;;;;;;4.90;3.47;;;;;;;;;;4975574;28;20253;-75
2022/07/28 06:22:43;;;;;;;7.03;3.40;;;;;;;;;;4974237;28;20216;-75
2022/07/28 06:25:16;;;;;;;6.50;2.90;;;;;;;;;;4974464;28;20209;-75
2022/07/28 06:27:46;;;;;;;6.80;3.30;;;;;;;;;;4973550;28;20281;-75
2022/07/28 06:30:14;;;;;;;4.10;2.97;;;;;;;;;;4973664;28;20689;-75
2022/07/28 06:32:43;;;;;;;3.83;3.00;;;;;;;;;;4974378;28;20205;-75
2022/07/28 06:35:15;;;;;;;4.57;2.77;;;;;;;;;;4974342;28;20233;-75
2022/07/28 06:37:43;;;;;;;4.93;2.90;;;;;;;;;;4974129;28;20225;-75
2022/07/28 06:40:12;;;;;;;5.20;2.37;;;;;;;;;;4974283;28;20268;-75
2022/07/28 06:42:43;;;;;;;4.80;2.20;;;;;;;;;;4973784;28;20217;-75
2022/07/28 06:45:12;;;;;;;3.63;2.17;;;;;;;;;;4974110;28;20296;-75
2022/07/28 06:47:48;;;;;;;6.53;2.50;;;;;;;;;;4974657;28;20232;-75
2022/07/28 06:50:17;;;;;;;4.07;2.40;;;;;;;;;;4974454;28;20206;-75
2022/07/28 06:52:53;;;;;;;3.83;2.20;;;;;;;;;;4974558;28;20202;-75
2022/07/28 06:55:22;;;;;;;3.27;2.00;;;;;;;;;;4974170;28;20308;-75
2022/07/28 06:57:53;;;;;;;4.13;2.03;;;;;;;;;;4973468;28;20280;-75
2022/07/28 07:00:21;;;;;;;4.53;1.80;;;;;;;;;;4974911;28;20206;-74
2022/07/28 07:02:50;;;;;;;4.57;1.87;;;;;;;;;;4974528;28;20631;-75
2022/07/28 07:05:18;;;;;;;5.20;1.90;;;;;;;;;;4974011;28;20202;-75
2022/07/28 07:07:47;;;;;;;3.57;1.83;;;;;;;;;;4974372;28;20262;-75
2022/07/28 07:10:15;;;;;;;4.43;1.80;;;;;;;;;;4973579;28;20682;-75
2022/07/28 07:12:44;;;;;;;3.80;1.27;;;;;;;;;;4974012;28;20214;-75
2022/07/28 07:15:14;;;;;;;3.92;1.40;;;;;;;;;;4974275;28;20699;-75
2022/07/28 07:17:42;;;;;;;4.73;1.67;;;;;;;;;;4976900;28;20237;-75
2022/07/28 07:20:12;;;;;;;2.95;1.48;;;;;;;;;;4978641;28;20223;-75
2022/07/28 07:22:43;;;;;;;3.70;1.58;;;;;;;;;;4977939;28;20221;-75
2022/07/28 07:25:13;;;;;;;3.53;1.38;;;;;;;;;;4977049;28;20261;-75
2022/07/28 07:27:41;;;;;;;3.78;1.20;;;;;;;;;;4979418;28;20312;-74
2022/07/28 07:30:10;;;;;;;4.30;1.30;;;;;;;;;;4977259;28;20209;-75
2022/07/28 07:32:40;;;;;;;2.08;1.10;;;;;;;;;;4977012;28;20249;-75
2022/07/28 07:35:09;;;;;;;4.47;1.33;;;;;;;;;;4977438;28;20210;-74
2022/07/28 07:37:38;;;;;;;3.83;1.23;;;;;;;;;;4976660;28;20609;-75
2022/07/28 07:40:07;;;;;;;4.82;1.30;;;;;;;;;;4977509;28;20690;-74
2022/07/28 07:42:36;;;;;;;4.82;1.40;;;;;;;;;;4977375;28;20584;-75
2022/07/28 07:45:05;;;;;;;1.95;1.08;;;;;;;;;;4976943;28;20267;-74
2022/07/28 07:47:33;;;;;;;2.38;1.20;;;;;;;;;;4977765;28;20225;-74
2022/07/28 07:50:03;;;;;;;2.75;1.17;;;;;;;;;;4977723;28;20205;-75
2022/07/28 07:52:32;;;;;;;4.47;1.30;;;;;;;;;;4976373;28;20241;-75
2022/07/28 07:55:08;;;;;;;2.42;1.20;;;;;;;;;;4977279;28;20210;-75
2022/07/28 07:57:37;;;;;;;2.80;1.17;;;;;;;;;;4976644;28;20237;-75
2022/07/28 08:00:06;;;;;;;2.05;0.95;;;;;;;;;;4974686;28;20213;-74
2022/07/28 08:02:34;;;;;;;2.40;1.02;;;;;;;;;;4963103;28;20203;-75
2022/07/28 08:05:05;;;;;;;1.92;1.00;;;;;;;;;;4975866;28;20232;-74
2022/07/28 08:07:36;;;;;;;2.78;1.20;;;;;;;;;;4976489;28;20225;-74
2022/07/28 08:10:05;;;;;;;3.60;1.08;;;;;;;;;;4973854;28;20663;-74
2022/07/28 08:21:21;;;;;;;4.18;1.13;;;;;;;;;;6046884;23;21159;-74
2022/07/28 08:23:49;;;;;;;3.28;1.10;;;;;;;;;;4947178;28;20233;-74
2022/07/28 08:26:18;;;;;;;1.27;0.95;;;;;;;;;;4952166;28;20203;-75
2022/07/28 08:28:46;;;;;;;3.08;0.98;;;;;;;;;;4932161;29;20210;-75
2022/07/28 08:31:16;;;;;;;3.30;1.00;;;;;;;;;;4931067;29;20207;-74
2022/07/28 08:33:45;;;;;;;3.50;1.30;;;;;;;;;;4927548;29;20212;-75
2022/07/28 08:36:23;;;;;;;3.90;1.20;;;;;;;;;;4930502;29;20215;-74
2022/07/28 08:38:51;;;;;;;1.80;0.90;;;;;;;;;;4938550;29;20218;-75
2022/07/28 08:41:26;;;;;;;4.40;1.17;;;;;;;;;;4935822;29;20215;-74
2022/07/28 08:44:03;;;;;;;2.30;1.25;;;;;;;;;;4937440;29;20202;-74
2022/07/28 08:46:35;;;;;;;2.35;0.95;;;;;;;;;;4927588;29;20252;-74
2022/07/28 08:49:07;;;;;;;2.97;1.10;;;;;;;;;;4938422;29;20210;-75
2022/07/28 08:51:40;;;;;;;4.10;1.10;;;;;;;;;;4936826;29;20200;-74
2022/07/28 08:54:09;;;;;;;2.35;1.15;;;;;;;;;;4935297;29;20203;-75
2022/07/28 08:56:40;;;;;;;3.15;1.10;;;;;;;;;;4934988;29;20251;-75
2022/07/28 08:59:15;;;;;;;1.98;1.13;;;;;;;;;;4935464;29;20279;-74
2022/07/28 09:01:44;;;;;;;3.45;1.35;;;;;;;;;;4933917;29;20210;-74
2022/07/28 09:04:13;;;;;;;4.55;1.25;;;;;;;;;;4936056;29;20333;-74
2022/07/28 09:06:43;;;;;;;1.77;1.02;;;;;;;;;;4926457;29;20610;-74
2022/07/28 09:09:12;;;;;;;2.83;1.17;;;;;;;;;;4935589;29;20207;-74
2022/07/28 09:11:40;;;;;;;4.38;1.05;;;;;;;;;;4937410;29;20203;-74
2022/07/28 09:14:09;;;;;;;2.47;1.08;;;;;;;;;;4939363;29;20247;-74
2022/07/28 09:16:38;;;;;;;1.38;0.93;;;;;;;;;;4935171;29;20718;-74
2022/07/28 09:19:07;;;;;;;5.22;1.10;;;;;;;;;;4937172;29;20222;-74
2022/07/28 09:21:35;;;;;;;2.90;1.10;;;;;;;;;;4935993;29;20939;-74
2022/07/28 09:24:05;;;;;;;1.33;1.00;;;;;;;;;;4934730;29;20203;-74
2022/07/28 09:26:34;;;;;;;2.83;1.10;;;;;;;;;;4934372;29;20557;-74
2022/07/28 09:29:03;;;;;;;4.43;1.23;;;;;;;;;;4590112;28;10000200;-73
2022/07/28 09:31:31;;;;;;;3.50;1.30;;;;;;;;;;4935957;29;20562;-74
2022/07/28 09:34:00;;;;;;;4.55;1.15;;;;;;;;;;4935859;29;20672;-74
2022/07/28 09:36:29;;;;;;;3.47;1.20;;;;;;;;;;4935671;29;20589;-75
2022/07/28 09:38:58;;;;;;;3.60;1.35;;;;;;;;;;4935844;29;20203;-74
2022/07/28 09:41:28;;;;;;;3.08;1.13;;;;;;;;;;4936160;29;20207;-74
2022/07/28 09:43:57;;;;;;;2.50;1.20;;;;;;;;;;4932652;29;20657;-75
2022/07/28 09:46:26;;;;;;;1.90;0.93;;;;;;;;;;4934487;29;20554;-74
2022/07/28 09:48:58;;;;;;;3.30;1.15;;;;;;;;;;4935576;29;20207;-74
2022/07/28 09:51:27;;;;;;;1.67;1.00;;;;;;;;;;4933798;29;20831;-74
2022/07/28 09:54:06;;;;;;;2.60;1.10;;;;;;;;;;4936601;29;20207;-74
2022/07/28 09:56:36;;;;;;;3.97;1.33;;;;;;;;;;4927992;29;20278;-74
2022/07/28 09:59:05;;;;;;;1.90;1.23;;;;;;;;;;4936449;29;20211;-74
2022/07/28 10:01:50;;;;;;;3.45;1.15;;;;;;;;;;4929774;29;20203;-74
2022/07/28 10:04:29;;;;;;;2.03;1.40;;;;;;;;;;4929918;29;20211;-75
2022/07/28 10:07:01;;;;;;;2.42;1.35;;;;;;;;;;4934911;29;20219;-74
2022/07/28 10:09:30;;;;;;;3.92;1.20;;;;;;;;;;4920442;29;20585;-75
2022/07/28 10:12:13;;;;;;;2.05;1.30;;;;;;;;;;4931899;29;20203;-74
2022/07/28 10:14:45;;;;;;;2.95;1.08;;;;;;;;;;4919093;29;20195;-75
2022/07/28 10:17:22;;;;;;;2.65;1.05;;;;;;;;;;4933329;29;20223;-74
2022/07/28 10:19:53;;;;;;;3.25;1.27;;;;;;;;;;4925203;29;20199;-75
2022/07/28 10:22:23;;;;;;;4.03;1.50;;;;;;;;;;4931496;29;20223;-74
2022/07/28 10:24:53;;;;;;;3.92;1.30;;;;;;;;;;4936631;29;20203;-74
2022/07/28 10:27:23;;;;;;;2.05;1.20;;;;;;;;;;4932942;29;20227;-75
2022/07/28 10:29:55;;;;;;;4.90;1.48;;;;;;;;;;4935568;29;20212;-74
2022/07/28 10:32:24;;;;;;;2.72;1.10;;;;;;;;;;4932495;29;20271;-76
2022/07/28 10:34:56;;;;;;;2.83;1.27;;;;;;;;;;4923499;29;20266;-74
2022/07/28 10:37:27;;;;;;;2.75;1.55;;;;;;;;;;4924647;29;20580;-74
2022/07/28 10:40:01;;;;;;;3.10;1.13;;;;;;;;;;4934586;29;20203;-74
2022/07/28 10:42:37;;;;;;;3.88;1.20;;;;;;;;;;4930213;29;20211;-75
2022/07/28 10:45:08;;;;;;;3.08;1.23;;;;;;;;;;4928979;29;20207;-75
2022/07/28 10:47:37;;;;;;;4.97;1.38;;;;;;;;;;4927314;29;20234;-75
2022/07/28 10:50:07;;;;;;;5.03;1.30;;;;;;;;;;4932282;29;20200;-75
2022/07/28 10:52:37;;;;;;;2.53;1.30;;;;;;;;;;4935677;29;20671;-74
2022/07/28 10:55:30;;;;;;;2.35;1.20;;;;;;;;;;4932208;29;20211;-75
2022/07/28 10:58:04;;;;;;;3.90;1.25;;;;;;;;;;4933610;29;20684;-74
2022/07/28 11:00:46;;;;;;;4.93;1.33;;;;;;;;;;4937648;29;20206;-75
2022/07/28 11:03:37;;;;;;;3.10;1.33;;;;;;;;;;4936571;29;20684;-75
2022/07/28 11:06:24;;;;;;;4.47;1.30;;;;;;;;;;4929986;29;20214;-75
2022/07/28 11:08:53;;;;;;;3.65;1.48;;;;;;;;;;4934573;29;20203;-74
2022/07/28 11:11:39;;;;;;;2.78;1.20;;;;;;;;;;4933017;29;20246;-75
2022/07/28 11:14:28;;;;;;;3.60;1.27;;;;;;;;;;4930354;29;20207;-75
2022/07/28 11:17:11;;;;;;;3.40;1.30;;;;;;;;;;4938748;29;20676;-74
2022/07/28 11:19:53;;;;;;;2.78;1.27;;;;;;;;;;4939322;29;20214;-75
2022/07/28 11:22:41;;;;;;;2.88;1.10;;;;;;;;;;4935349;29;20265;-74
2022/07/28 11:25:13;;;;;;;2.20;1.20;;;;;;;;;;4938031;29;20214;-75
2022/07/28 11:28:03;;;;;;;4.93;1.55;;;;;;;;;;4939962;29;20625;-74
2022/07/28 11:30:53;;;;;;;3.60;1.48;;;;;;;;;;4939922;29;20340;-75
2022/07/28 11:33:23;;;;;;;2.30;1.13;;;;;;;;;;4925426;29;20249;-74
2022/07/28 11:36:10;;;;;;;2.47;1.23;;;;;;;;;;4936622;29;20231;-75
2022/07/28 11:38:40;;;;;;;2.67;1.20;;;;;;;;;;4924876;29;20235;-74
2022/07/28 11:41:28;;;;;;;3.90;1.48;;;;;;;;;;4938068;29;20259;-74
2022/07/28 11:43:58;;;;;;;3.33;1.10;;;;;;;;;;4937998;29;20498;-75
2022/07/28 11:46:27;;;;;;;4.38;1.20;;;;;;;;;;4938440;29;20210;-74
2022/07/28 11:49:14;;;;;;;3.55;1.35;;;;;;;;;;4937945;29;20204;-75
2022/07/28 11:51:58;;;;;;;2.30;1.35;;;;;;;;;;4938501;29;20218;-74
2022/07/28 11:54:31;;;;;;;2.20;1.30;;;;;;;;;;4938193;29;20286;-74
2022/07/28 11:57:01;;;;;;;4.32;1.23;;;;;;;;;;4927435;29;20700;-75
2022/07/28 11:59:29;;;;;;;3.58;1.10;;;;;;;;;;4936078;29;20226;-75
2022/07/28 12:02:04;;;;;;;3.55;1.30;;;;;;;;;;4934662;29;20210;-74
2022/07/28 12:04:33;;;;;;;1.88;1.15;;;;;;;;;;4939143;29;20263;-75
2022/07/28 12:07:02;;;;;;;4.05;1.42;;;;;;;;;;4938689;29;20234;-75
2022/07/28 12:09:33;;;;;;;2.65;1.20;;;;;;;;;;4938367;29;20199;-74
2022/07/28 12:12:10;;;;;;;2.53;1.10;;;;;;;;;;4938318;29;20285;-75
2022/07/28 12:14:43;;;;;;;3.08;1.13;;;;;;;;;;4936848;29;20231;-75
2022/07/28 12:17:13;;;;;;;3.42;1.00;;;;;;;;;;4928458;29;20255;-75
2022/07/28 12:19:43;;;;;;;4.18;1.40;;;;;;;;;;4937642;29;20230;-74
2022/07/28 12:22:12;;;;;;;3.42;1.35;;;;;;;;;;4938245;29;20680;-74
2022/07/28 12:24:44;;;;;;;3.70;1.30;;;;;;;;;;4938477;29;20638;-75
2022/07/28 12:27:13;;;;;;;3.80;1.42;;;;;;;;;;4938038;29;20223;-74
2022/07/28 12:29:44;;;;;;;7.07;1.55;;;;;;;;;;4935445;29;20230;-74
2022/07/28 12:32:17;;;;;;;3.72;1.40;;;;;;;;;;4938213;29;20211;-74
2022/07/28 12:34:45;;;;;;;5.97;1.40;;;;;;;;;;4937827;29;20214;-73
2022/07/28 12:37:14;;;;;;;3.80;1.27;;;;;;;;;;4924128;29;20588;-74
2022/07/28 12:39:45;;;;;;;2.85;1.20;;;;;;;;;;4938354;29;20688;-74
2022/07/28 12:42:14;;;;;;;2.78;1.20;;;;;;;;;;4935728;29;20195;-74
2022/07/28 12:44:43;;;;;;;3.92;1.27;;;;;;;;;;4937845;29;20691;-74
2022/07/28 12:47:13;;;;;;;1.67;1.10;;;;;;;;;;4933315;29;20227;-74
2022/07/28 12:49:43;;;;;;;6.72;1.55;;;;;;;;;;4937592;29;20207;-74
2022/07/28 12:52:15;;;;;;;3.60;1.27;;;;;;;;;;4929993;29;20212;-74
2022/07/28 12:54:44;;;;;;;2.08;1.00;;;;;;;;;;4935781;29;20266;-75
2022/07/28 12:57:37;;;;;;;2.47;1.35;;;;;;;;;;4936259;29;20278;-75
2022/07/28 13:00:07;;;;;;;3.28;1.30;;;;;;;;;;4938169;29;20199;-75
2022/07/28 13:02:36;;;;;;;4.63;1.33;;;;;;;;;;4924790;29;20208;-75
2022/07/28 13:05:06;;;;;;;2.15;1.30;;;;;;;;;;4589193;28;10000211;-74
2022/07/28 13:07:35;;;;;;;2.53;1.13;;;;;;;;;;4925092;29;20697;-74
2022/07/28 13:10:06;;;;;;;3.67;1.50;;;;;;;;;;4923489;29;20645;-74
2022/07/28 13:12:39;;;;;;;4.47;1.20;;;;;;;;;;4934092;29;20301;-74
2022/07/28 13:15:15;;;;;;;4.70;1.50;;;;;;;;;;4925865;29;20711;-73
2022/07/28 13:17:51;;;;;;;3.35;1.30;;;;;;;;;;4930647;29;20333;-73
2022/07/28 13:20:20;;;;;;;2.25;1.20;;;;;;;;;;4933480;29;20219;-74
2022/07/28 13:22:49;;;;;;;2.33;1.20;;;;;;;;;;4930601;29;20270;-74
2022/07/28 13:25:19;;;;;;;1.83;1.17;;;;;;;;;;4925752;29;20211;-74
2022/07/28 13:27:47;;;;;;;3.85;1.50;;;;;;;;;;4926866;29;20235;-74
2022/07/28 13:30:23;;;;;;;3.05;1.30;;;;;;;;;;4933783;29;20556;-74
2022/07/28 13:32:53;;;;;;;2.83;1.25;;;;;;;;;;4931991;29;20211;-74
2022/07/28 13:35:22;;;;;;;3.13;1.10;;;;;;;;;;4934291;29;20695;-74
2022/07/28 13:37:50;;;;;;;5.00;1.27;;;;;;;;;;4927891;29;20621;-74
2022/07/28 13:40:21;;;;;;;3.35;1.27;;;;;;;;;;4917657;29;20231;-74
2022/07/28 13:42:49;;;;;;;4.05;1.58;;;;;;;;;;4927666;29;20210;-74
2022/07/28 13:45:24;;;;;;;2.22;1.40;;;;;;;;;;4931100;29;20213;-74
2022/07/28 13:47:57;;;;;;;2.45;1.20;;;;;;;;;;4929771;29;20680;-74
2022/07/28 13:50:26;;;;;;;4.68;1.38;;;;;;;;;;4931615;29;20211;-74
2022/07/28 13:52:54;;;;;;;3.42;1.40;;;;;;;;;;4930032;29;20203;-74
2022/07/28 13:55:24;;;;;;;2.25;1.20;;;;;;;;;;4931754;29;20215;-74
2022/07/28 13:57:54;;;;;;;3.05;1.10;;;;;;;;;;4933280;29;20278;-74
2022/07/28 14:00:23;;;;;;;2.35;1.25;;;;;;;;;;4934240;29;20696;-74
2022/07/28 14:02:52;;;;;;;3.33;1.30;;;;;;;;;;4933249;29;20214;-74
2022/07/28 14:05:21;;;;;;;2.75;1.05;;;;;;;;;;4918669;29;20215;-73
2022/07/28 14:07:49;;;;;;;3.35;1.40;;;;;;;;;;4933634;29;20758;-74
2022/07/28 14:10:18;;;;;;;2.50;1.38;;;;;;;;;;4933729;29;20203;-74
2022/07/28 14:12:48;;;;;;;2.58;1.33;;;;;;;;;;4933388;29;20211;-74
2022/07/28 14:15:16;;;;;;;4.00;1.33;;;;;;;;;;4931095;29;20211;-74
2022/07/28 14:17:45;;;;;;;4.65;1.40;;;;;;;;;;4934358;29;20242;-74
2022/07/28 14:20:14;;;;;;;2.65;1.40;;;;;;;;;;4935205;29;20238;-74
2022/07/28 14:22:43;;;;;;;3.20;1.30;;;;;;;;;;4934560;29;20222;-74
2022/07/28 14:25:11;;;;;;;2.22;1.40;;;;;;;;;;4935367;29;20211;-74
2022/07/28 14:27:50;;;;;;;3.70;1.50;;;;;;;;;;4936083;29;20254;-74
2022/07/28 14:30:19;;;;;;;3.25;1.02;;;;;;;;;;4935269;29;20671;-74
2022/07/28 14:32:47;;;;;;;4.63;1.33;;;;;;;;;;4934174;29;20562;-74
2022/07/28 14:35:16;;;;;;;2.42;1.42;;;;;;;;;;4934165;29;20215;-74
2022/07/28 14:37:45;;;;;;;4.20;1.40;;;;;;;;;;4935321;29;20240;-74
2022/07/28 14:40:33;;;;;;;4.75;1.50;;;;;;;;;;4928107;29;20223;-73
2022/07/28 14:43:09;;;;;;;1.77;1.20;;;;;;;;;;4932503;29;20219;-74
2022/07/28 14:45:37;;;;;;;4.53;1.30;;;;;;;;;;4916636;29;20218;-73
2022/07/28 14:48:26;;;;;;;1.60;1.20;;;;;;;;;;4929698;29;20277;-74
2022/07/28 14:50:55;;;;;;;2.40;1.10;;;;;;;;;;4933303;29;20206;-73
2022/07/28 14:53:24;;;;;;;2.88;1.25;;;;;;;;;;4932966;29;20634;-73
2022/07/28 14:55:55;;;;;;;3.13;1.50;;;;;;;;;;4932620;29;20218;-73
2022/07/28 14:58:25;;;;;;;5.93;1.40;;;;;;;;;;4934052;29;20227;-73
2022/07/28 15:00:54;;;;;;;2.50;1.25;;;;;;;;;;4934078;29;20230;-73
2022/07/28 15:03:25;;;;;;;4.13;1.33;;;;;;;;;;4933653;29;20207;-76
2022/07/28 15:05:54;;;;;;;2.70;1.38;;;;;;;;;;4934397;29;20210;-73
2022/07/28 15:08:22;;;;;;;4.68;1.25;;;;;;;;;;4931385;29;20246;-74
2022/07/28 15:10:57;;;;;;;3.28;1.27;;;;;;;;;;4933884;29;20202;-73
2022/07/28 15:13:27;;;;;;;2.47;1.15;;;;;;;;;;4933287;29;20214;-74
2022/07/28 15:15:58;;;;;;;5.78;1.40;;;;;;;;;;4924505;29;20620;-73
2022/07/28 15:18:27;;;;;;;2.15;1.27;;;;;;;;;;4927920;29;20727;-73